Time;durP1;ratioP1;P1;durP2;ratioP2;P2;SDS_P1;SDS_P2;PMS_P1;PMS_P2;Temp;Humidity;BMP_temperature;BMP_pressure;BME280_temperature;BME280_humidity;BME280_pressure;Samples;Min_cycle;Max_cycle;Signal;HPM_P1;HPM_P2
2022/10/10 00:02:23;;;;;;;2.30;1.60;;;10.10;99.90;;;;;;5133141;28;20517;-48
2022/10/10 00:04:51;;;;;;;5.40;2.23;;;10.10;99.90;;;;;;5122243;28;20444;-54
2022/10/10 00:07:18;;;;;;;2.87;1.53;;;10.00;99.90;;;;;;5126824;28;20444;-52
2022/10/10 00:09:47;;;;;;;5.97;2.03;;;10.10;99.90;;;;;;5129016;28;21073;-51
2022/10/10 00:12:14;;;;;;;3.53;1.80;;;10.10;99.90;;;;;;5128601;28;20443;-47
2022/10/10 00:14:41;;;;;;;4.73;1.80;;;10.10;99.90;;;;;;5128762;28;20456;-51
2022/10/10 00:17:07;;;;;;;3.63;1.73;;;10.10;99.90;;;;;;5121973;28;20463;-48
2022/10/10 00:19:34;;;;;;;2.70;2.23;;;10.10;99.90;;;;;;5114510;28;20465;-44
2022/10/10 00:22:01;;;;;;;19.67;2.03;;;10.10;99.90;;;;;;5126897;28;20441;-48
2022/10/10 00:24:28;;;;;;;4.00;2.03;;;10.10;99.90;;;;;;5109630;28;20441;-45
2022/10/10 00:26:56;;;;;;;5.90;2.10;;;10.10;99.90;;;;;;5105131;28;20913;-46
2022/10/10 00:29:22;;;;;;;8.47;1.37;;;10.10;99.90;;;;;;5117035;28;20479;-48
2022/10/10 00:31:51;;;;;;;5.10;2.03;;;10.10;99.90;;;;;;5104315;28;20444;-45
2022/10/10 00:34:18;;;;;;;7.17;2.30;;;10.10;99.90;;;;;;5114178;28;20449;-44
2022/10/10 00:36:44;;;;;;;7.73;1.63;;;10.00;99.90;;;;;;5107234;28;20484;-49
2022/10/10 00:39:11;;;;;;;3.40;1.60;;;10.00;99.90;;;;;;5127632;28;20472;-45
2022/10/10 00:41:38;;;;;;;4.70;2.20;;;10.00;99.90;;;;;;5128777;28;20450;-46
2022/10/10 00:44:09;;;;;;;4.07;2.50;;;10.00;99.90;;;;;;5113237;28;20442;-53
2022/10/10 00:46:36;;;;;;;4.07;1.70;;;10.00;99.90;;;;;;5110410;28;20843;-42
2022/10/10 00:49:12;;;;;;;6.47;3.10;;;10.00;99.90;;;;;;5119673;28;20457;-47
2022/10/10 00:51:39;;;;;;;4.23;1.80;;;9.90;99.90;;;;;;5112167;28;20519;-51
2022/10/10 00:54:09;;;;;;;5.70;1.77;;;9.90;99.90;;;;;;5118028;27;20730;-53
2022/10/10 00:56:42;;;;;;;3.00;1.87;;;9.90;99.90;;;;;;5128441;28;20429;-49
2022/10/10 00:59:11;;;;;;;2.67;2.03;;;9.90;99.90;;;;;;5111324;28;20473;-51
2022/10/10 01:01:39;;;;;;;2.30;1.67;;;9.90;99.90;;;;;;5118925;28;20448;-46
2022/10/10 01:04:06;;;;;;;3.47;1.77;;;9.80;99.90;;;;;;5116210;28;20457;-48
2022/10/10 01:06:33;;;;;;;3.63;1.47;;;9.80;99.90;;;;;;5116870;28;20445;-49
2022/10/10 01:09:01;;;;;;;4.00;2.30;;;9.80;99.90;;;;;;5124167;28;20854;-48
2022/10/10 01:11:49;;;;;;;2.70;1.70;;;9.80;99.90;;;;;;5118153;28;20536;-43
2022/10/10 01:14:34;;;;;;;2.93;1.47;;;9.80;99.90;;;;;;5117426;28;20451;-49
2022/10/10 01:17:08;;;;;;;3.30;1.83;;;9.80;99.90;;;;;;5128228;28;20482;-52
2022/10/10 01:20:02;;;;;;;3.47;2.23;;;9.80;99.90;;;;;;5128503;28;20460;-48
2022/10/10 01:22:38;;;;;;;2.77;1.53;;;9.70;99.90;;;;;;5128002;28;20885;-48
2022/10/10 01:25:22;;;;;;;8.83;2.40;;;9.80;99.90;;;;;;5119073;28;20460;-48
2022/10/10 01:27:53;;;;;;;2.43;2.00;;;9.80;99.90;;;;;;5111091;28;20521;-50
2022/10/10 01:30:23;;;;;;;6.00;2.30;;;9.70;99.90;;;;;;5119268;28;20440;-48
2022/10/10 01:32:54;;;;;;;2.80;1.77;;;9.70;99.90;;;;;;5110570;28;20856;-42
2022/10/10 01:35:36;;;;;;;4.23;2.60;;;9.70;99.90;;;;;;5101642;28;20429;-44
2022/10/10 01:38:13;;;;;;;6.73;1.87;;;9.70;99.90;;;;;;5108612;28;20433;-47
2022/10/10 01:40:48;;;;;;;3.43;2.60;;;9.60;99.90;;;;;;5101468;28;20465;-43
2022/10/10 01:43:16;;;;;;;4.10;1.90;;;9.60;99.90;;;;;;5105217;28;20515;-46
2022/10/10 01:45:46;;;;;;;3.97;2.20;;;9.60;99.90;;;;;;5116035;28;20448;-48
2022/10/10 01:48:18;;;;;;;4.47;1.93;;;9.60;99.90;;;;;;5100212;28;20437;-45
2022/10/10 01:51:00;;;;;;;2.57;2.20;;;9.60;99.90;;;;;;5115097;28;20431;-45
2022/10/10 01:53:36;;;;;;;13.60;2.80;;;9.60;99.90;;;;;;5114783;28;20444;-48
2022/10/10 01:56:09;;;;;;;7.03;1.87;;;9.60;99.90;;;;;;5122290;28;20459;-45
2022/10/10 01:59:06;;;;;;;2.37;1.63;;;9.50;99.90;;;;;;5108181;28;20434;-49
2022/10/10 02:01:42;;;;;;;3.90;1.97;;;9.50;99.90;;;;;;5100262;28;20442;-44
2022/10/10 02:04:15;;;;;;;3.00;1.53;;;9.50;99.90;;;;;;5103777;28;20429;-46
2022/10/10 02:06:49;;;;;;;4.30;2.00;;;9.50;99.90;;;;;;5114648;28;20435;-49
2022/10/10 02:09:21;;;;;;;2.10;1.90;;;9.40;99.90;;;;;;5098577;28;20531;-44
2022/10/10 02:11:49;;;;;;;7.53;2.67;;;9.40;99.90;;;;;;5106304;28;20437;-46
2022/10/10 02:14:20;;;;;;;4.27;1.87;;;9.40;99.90;;;;;;5107672;28;20468;-50
2022/10/10 02:16:52;;;;;;;2.70;1.37;;;9.40;99.90;;;;;;5121296;28;20433;-48
2022/10/10 02:19:21;;;;;;;3.67;1.90;;;9.40;99.90;;;;;;5125279;28;20451;-46
2022/10/10 02:21:49;;;;;;;3.20;1.70;;;9.40;99.90;;;;;;5114730;28;20476;-47
2022/10/10 02:24:19;;;;;;;2.17;1.60;;;9.40;99.90;;;;;;5118018;28;20451;-51
2022/10/10 02:26:52;;;;;;;6.17;1.70;;;9.30;99.90;;;;;;5119787;28;20509;-47
2022/10/10 02:29:24;;;;;;;3.30;1.77;;;9.30;99.90;;;;;;5120215;28;20464;-51
2022/10/10 02:31:58;;;;;;;3.90;2.00;;;9.30;99.90;;;;;;5119755;28;20429;-44
2022/10/10 02:34:28;;;;;;;2.90;1.90;;;9.30;99.90;;;;;;5120069;28;20722;-52
2022/10/10 02:37:01;;;;;;;3.70;1.80;;;9.30;99.90;;;;;;5120085;28;20441;-49
2022/10/10 02:39:33;;;;;;;4.90;2.63;;;9.30;99.90;;;;;;5119703;28;20425;-46
2022/10/10 02:42:00;;;;;;;6.13;2.40;;;9.20;99.90;;;;;;5119832;28;20428;-52
2022/10/10 02:44:27;;;;;;;9.07;2.20;;;9.20;99.90;;;;;;5120661;28;20512;-51
2022/10/10 02:46:55;;;;;;;8.37;1.57;;;9.20;99.90;;;;;;5119512;28;20458;-50
2022/10/10 02:49:28;;;;;;;3.00;1.63;;;9.30;99.90;;;;;;5120254;28;20495;-50
2022/10/10 02:51:55;;;;;;;1.67;1.40;;;9.20;99.90;;;;;;5120133;28;20420;-51
2022/10/10 02:54:23;;;;;;;3.73;2.40;;;9.20;99.90;;;;;;5119032;28;20491;-51
2022/10/10 02:56:49;;;;;;;2.93;1.70;;;9.20;99.90;;;;;;5119370;28;20450;-52
2022/10/10 02:59:16;;;;;;;3.13;2.30;;;9.10;99.90;;;;;;5118610;28;20441;-55
2022/10/10 03:01:47;;;;;;;3.60;2.30;;;9.10;99.90;;;;;;5118095;28;21043;-52
2022/10/10 03:04:15;;;;;;;4.90;2.67;;;9.10;99.90;;;;;;5118639;28;20439;-50
2022/10/10 03:06:42;;;;;;;6.87;2.30;;;9.10;99.90;;;;;;5118457;28;20460;-56
2022/10/10 03:09:09;;;;;;;4.03;2.30;;;9.10;99.90;;;;;;5118725;28;20445;-55
2022/10/10 03:11:36;;;;;;;2.40;1.80;;;9.10;99.90;;;;;;5118567;28;20465;-53
2022/10/10 03:14:03;;;;;;;4.83;2.10;;;9.00;99.90;;;;;;5118502;28;20448;-50
2022/10/10 03:16:30;;;;;;;3.27;2.10;;;9.00;99.90;;;;;;5118245;28;20436;-50
2022/10/10 03:18:57;;;;;;;6.00;2.20;;;9.00;99.90;;;;;;5117488;28;20772;-49
2022/10/10 03:21:28;;;;;;;4.60;2.70;;;9.00;99.90;;;;;;5115054;28;20480;-52
2022/10/10 03:23:54;;;;;;;4.77;2.00;;;9.00;99.90;;;;;;5122068;28;20956;-50
2022/10/10 03:26:21;;;;;;;5.63;1.90;;;9.00;99.90;;;;;;5124464;28;20444;-52
2022/10/10 03:28:48;;;;;;;6.93;2.83;;;9.00;99.90;;;;;;5119111;28;20488;-50
2022/10/10 03:31:15;;;;;;;4.63;2.10;;;8.90;99.90;;;;;;5124034;28;20518;-49
2022/10/10 03:33:42;;;;;;;7.60;2.70;;;8.90;99.90;;;;;;5126291;28;20436;-51
2022/10/10 03:36:09;;;;;;;5.00;2.27;;;8.90;99.90;;;;;;5126037;28;20472;-45
2022/10/10 03:38:38;;;;;;;6.37;2.13;;;8.80;99.90;;;;;;5133832;28;20520;-39
2022/10/10 03:41:05;;;;;;;3.17;2.30;;;8.80;99.90;;;;;;5136548;28;20467;-41
2022/10/10 03:43:32;;;;;;;3.60;2.07;;;8.80;99.90;;;;;;5136877;28;20523;-39
2022/10/10 03:45:59;;;;;;;3.20;2.00;;;8.80;99.90;;;;;;5136971;27;20445;-41
2022/10/10 03:48:26;;;;;;;2.27;1.80;;;8.80;99.90;;;;;;5136883;28;20440;-44
2022/10/10 03:50:54;;;;;;;5.00;1.77;;;8.80;99.90;;;;;;5136452;28;20489;-45
2022/10/10 03:53:21;;;;;;;4.00;2.20;;;8.80;99.90;;;;;;5133297;28;20433;-52
2022/10/10 03:55:49;;;;;;;3.63;2.10;;;8.80;99.90;;;;;;5114015;28;20453;-55
2022/10/10 03:58:16;;;;;;;3.33;1.93;;;8.70;99.90;;;;;;5114040;28;20440;-50
2022/10/10 04:00:43;;;;;;;9.73;2.20;;;8.70;99.90;;;;;;5117653;28;20486;-48
2022/10/10 04:03:09;;;;;;;5.00;1.80;;;8.70;99.90;;;;;;5117761;28;20464;-54
2022/10/10 04:05:37;;;;;;;3.00;1.97;;;8.70;99.90;;;;;;5117897;28;20463;-52
2022/10/10 04:08:05;;;;;;;5.93;2.50;;;8.70;99.90;;;;;;5117847;28;20468;-51
2022/10/10 04:10:32;;;;;;;2.90;1.60;;;8.70;99.90;;;;;;5118016;28;20441;-55
2022/10/10 04:13:00;;;;;;;8.30;2.53;;;8.70;99.90;;;;;;5117713;28;20547;-56
2022/10/10 04:15:27;;;;;;;5.07;2.20;;;8.70;99.90;;;;;;5117827;28;20805;-53
2022/10/10 04:17:53;;;;;;;5.30;2.37;;;8.70;99.90;;;;;;5117763;28;20441;-53
2022/10/10 04:20:20;;;;;;;4.67;3.07;;;8.70;99.90;;;;;;5117310;28;20480;-51
2022/10/10 04:22:47;;;;;;;8.80;4.30;;;8.70;99.90;;;;;;5117504;28;20460;-54
2022/10/10 04:25:14;;;;;;;4.37;2.07;;;8.70;99.90;;;;;;5117594;28;20461;-51
2022/10/10 04:27:42;;;;;;;5.50;2.40;;;8.60;99.90;;;;;;5117489;28;20440;-55
2022/10/10 04:30:12;;;;;;;6.83;1.97;;;8.60;99.90;;;;;;5117480;28;20559;-54
2022/10/10 04:32:39;;;;;;;6.53;2.80;;;8.60;99.90;;;;;;5117063;28;20948;-50
2022/10/10 04:35:06;;;;;;;3.50;1.90;;;8.60;99.90;;;;;;5117470;28;20448;-49
2022/10/10 04:37:34;;;;;;;4.60;1.83;;;8.60;99.90;;;;;;5117562;28;20445;-51
2022/10/10 04:40:01;;;;;;;10.97;2.13;;;8.60;99.90;;;;;;5117825;28;20453;-52
2022/10/10 04:42:27;;;;;;;7.23;2.77;;;8.60;99.90;;;;;;5117093;28;20526;-49
2022/10/10 04:44:54;;;;;;;2.97;2.13;;;8.60;99.90;;;;;;5117477;28;20472;-53
2022/10/10 04:47:23;;;;;;;6.07;2.60;;;8.70;99.90;;;;;;5116862;28;20456;-49
2022/10/10 04:49:49;;;;;;;2.80;2.47;;;8.70;99.90;;;;;;5117146;28;20468;-50
2022/10/10 04:52:16;;;;;;;5.40;2.70;;;8.70;99.90;;;;;;5116787;28;20445;-54
2022/10/10 04:54:43;;;;;;;5.73;2.70;;;8.70;99.90;;;;;;5116655;28;20441;-52
2022/10/10 04:57:13;;;;;;;6.07;2.17;;;8.70;99.90;;;;;;5117014;28;20559;-52
2022/10/10 04:59:39;;;;;;;4.67;2.60;;;8.60;99.90;;;;;;5116899;28;20448;-54
2022/10/10 05:02:06;;;;;;;2.90;1.90;;;6.90;99.90;;;;;;5116871;28;20504;-54
2022/10/10 05:04:34;;;;;;;3.60;2.07;;;8.60;99.90;;;;;;5116893;28;20455;-56
2022/10/10 05:07:01;;;;;;;4.23;2.10;;;8.50;99.90;;;;;;5116433;28;20929;-52
2022/10/10 05:09:28;;;;;;;4.10;2.43;;;8.50;99.90;;;;;;5116490;28;20441;-52
2022/10/10 05:11:55;;;;;;;3.47;2.10;;;8.50;99.90;;;;;;5116304;28;20440;-52
2022/10/10 05:14:22;;;;;;;7.73;2.70;;;8.50;99.90;;;;;;5116550;28;20464;-51
2022/10/10 05:16:48;;;;;;;4.60;2.40;;;8.50;99.90;;;;;;5116537;28;20457;-52
2022/10/10 05:19:15;;;;;;;6.07;2.50;;;8.50;99.90;;;;;;5116695;28;20437;-55
2022/10/10 05:21:43;;;;;;;7.30;2.10;;;8.50;99.90;;;;;;5116297;28;20488;-52
2022/10/10 05:24:10;;;;;;;4.70;3.30;;;8.50;99.90;;;;;;5116478;28;20452;-50
2022/10/10 05:26:37;;;;;;;2.80;2.60;;;8.50;99.90;;;;;;5116171;28;20444;-52
2022/10/10 05:29:04;;;;;;;5.37;1.70;;;8.50;99.90;;;;;;5116458;28;20476;-47
2022/10/10 05:31:32;;;;;;;3.50;2.70;;;8.30;99.90;;;;;;5107830;28;20456;-49
2022/10/10 05:33:59;;;;;;;2.83;2.50;;;8.40;99.90;;;;;;5116548;28;20472;-48
2022/10/10 05:36:26;;;;;;;4.33;2.00;;;8.40;99.90;;;;;;5107840;28;20437;-45
2022/10/10 05:38:54;;;;;;;6.33;2.70;;;8.40;99.90;;;;;;5130158;28;20409;-45
2022/10/10 05:41:21;;;;;;;9.37;2.80;;;8.40;99.90;;;;;;5136255;28;20480;-43
2022/10/10 05:43:47;;;;;;;4.97;2.93;;;8.40;99.90;;;;;;5137154;28;20463;-52
2022/10/10 05:46:14;;;;;;;6.23;2.87;;;8.40;99.90;;;;;;5134341;28;20444;-46
2022/10/10 05:48:41;;;;;;;7.20;2.73;;;8.30;99.90;;;;;;5115835;28;20441;-52
2022/10/10 05:51:08;;;;;;;11.43;3.17;;;8.30;99.90;;;;;;5115137;28;20506;-46
2022/10/10 05:53:37;;;;;;;5.50;2.80;;;8.40;99.90;;;;;;5109343;28;20429;-53
2022/10/10 05:56:05;;;;;;;4.20;3.10;;;8.40;99.90;;;;;;5107527;28;20441;-50
2022/10/10 05:58:32;;;;;;;4.20;2.43;;;8.40;99.90;;;;;;5119789;28;20441;-52
2022/10/10 06:01:03;;;;;;;5.10;2.83;;;8.40;99.90;;;;;;5124238;28;20464;-48
2022/10/10 06:03:36;;;;;;;4.57;2.90;;;8.40;99.90;;;;;;5131171;27;20434;-52
2022/10/10 06:06:04;;;;;;;4.27;3.30;;;8.40;99.90;;;;;;5119005;28;20489;-51
2022/10/10 06:08:31;;;;;;;3.90;3.30;;;8.50;99.90;;;;;;5119721;28;20483;-54
2022/10/10 06:11:02;;;;;;;7.70;2.80;;;8.50;99.90;;;;;;5118104;28;20536;-48
2022/10/10 06:13:30;;;;;;;3.23;2.20;;;8.60;99.90;;;;;;5117189;28;20775;-51
2022/10/10 06:15:57;;;;;;;4.10;2.87;;;8.60;99.90;;;;;;5121496;28;20412;-49
2022/10/10 06:18:24;;;;;;;3.40;2.13;;;8.70;99.90;;;;;;5130343;28;20520;-53
2022/10/10 06:20:51;;;;;;;4.20;2.83;;;8.80;99.90;;;;;;5120036;28;20472;-48
2022/10/10 06:23:18;;;;;;;3.60;2.37;;;8.80;99.90;;;;;;5115860;28;20540;-57
2022/10/10 06:25:46;;;;;;;5.10;2.80;;;8.80;99.90;;;;;;5118123;28;20436;-49
2022/10/10 06:28:13;;;;;;;5.93;2.77;;;8.70;99.90;;;;;;5128924;28;20454;-42
2022/10/10 06:30:42;;;;;;;5.40;2.50;;;8.70;99.90;;;;;;5126007;28;20430;-49
2022/10/10 06:33:09;;;;;;;4.13;2.10;;;8.70;99.90;;;;;;5129478;28;20435;-41
2022/10/10 06:35:40;;;;;;;6.40;3.30;;;8.70;99.90;;;;;;5122083;28;20763;-53
2022/10/10 06:38:07;;;;;;;5.13;3.67;;;8.80;99.90;;;;;;5108924;28;20430;-57
2022/10/10 06:40:34;;;;;;;6.20;3.50;;;8.80;99.90;;;;;;5124274;28;20452;-50
2022/10/10 06:43:00;;;;;;;6.57;2.93;;;8.80;99.90;;;;;;5119611;28;20523;-56
2022/10/10 06:45:27;;;;;;;4.03;2.50;;;8.80;99.90;;;;;;5103078;28;20457;-50
2022/10/10 06:47:55;;;;;;;4.97;2.67;;;8.90;99.90;;;;;;5101526;28;20437;-49
2022/10/10 06:50:25;;;;;;;8.73;3.83;;;8.90;99.90;;;;;;5118245;28;20430;-50
2022/10/10 06:52:52;;;;;;;3.83;3.30;;;8.60;99.90;;;;;;5113294;28;20436;-50
2022/10/10 06:55:19;;;;;;;4.17;2.80;;;9.60;99.90;;;;;;5130375;28;20503;-46
2022/10/10 06:57:46;;;;;;;5.43;3.77;;;9.60;99.90;;;;;;5115812;28;20789;-47
2022/10/10 07:00:14;;;;;;;10.57;3.20;;;9.50;99.90;;;;;;5109717;28;20753;-56
2022/10/10 07:02:41;;;;;;;5.63;2.70;;;9.40;99.90;;;;;;5118117;28;20580;-55
2022/10/10 07:05:11;;;;;;;6.77;2.70;;;9.50;99.90;;;;;;5115809;28;20525;-54
2022/10/10 07:07:40;;;;;;;6.30;2.60;;;9.40;99.90;;;;;;5121068;27;20450;-38
2022/10/10 07:10:09;;;;;;;3.90;2.83;;;9.40;99.90;;;;;;5138635;27;20435;-36
2022/10/10 07:12:37;;;;;;;4.10;2.47;;;9.30;99.90;;;;;;5138124;27;20423;-36
2022/10/10 07:15:04;;;;;;;7.40;4.13;;;9.40;99.90;;;;;;5137727;27;20492;-50
2022/10/10 07:17:33;;;;;;;5.13;2.73;;;9.40;99.90;;;;;;5138715;27;20446;-44
2022/10/10 07:20:02;;;;;;;3.83;2.70;;;9.50;99.90;;;;;;5138203;27;20436;-49
2022/10/10 07:22:31;;;;;;;5.53;3.67;;;9.40;99.90;;;;;;5137251;27;20484;-58
2022/10/10 07:24:58;;;;;;;7.50;2.73;;;9.50;99.90;;;;;;5136738;28;20494;-58
2022/10/10 07:27:24;;;;;;;6.70;2.17;;;9.50;99.90;;;;;;5125968;28;20445;-60
2022/10/10 07:29:53;;;;;;;4.20;3.20;;;9.60;99.90;;;;;;5117955;28;20457;-63
2022/10/10 07:32:20;;;;;;;6.97;3.20;;;9.70;99.90;;;;;;5122257;28;20754;-61
2022/10/10 07:34:47;;;;;;;5.87;2.90;;;9.80;99.90;;;;;;5125123;28;20455;-62
2022/10/10 07:37:14;;;;;;;4.13;2.93;;;9.90;99.90;;;;;;5119309;28;20478;-63
2022/10/10 07:39:42;;;;;;;3.93;2.63;;;10.10;99.90;;;;;;5119912;28;20840;-62
2022/10/10 07:42:09;;;;;;;2.97;2.43;;;10.30;99.90;;;;;;5120138;28;20789;-60
2022/10/10 07:44:36;;;;;;;13.23;3.57;;;10.40;99.90;;;;;;5120712;28;20436;-61
2022/10/10 07:47:03;;;;;;;7.70;3.70;;;10.60;99.90;;;;;;5121130;28;20535;-58
2022/10/10 07:49:29;;;;;;;4.63;2.90;;;10.70;99.90;;;;;;5120930;28;20460;-62
2022/10/10 07:51:56;;;;;;;8.37;3.67;;;10.70;99.90;;;;;;5121547;28;20440;-63
2022/10/10 07:54:23;;;;;;;5.23;2.70;;;10.90;99.90;;;;;;5121085;28;20456;-60
2022/10/10 07:56:51;;;;;;;6.20;2.60;;;10.90;99.90;;;;;;5119065;28;20444;-61
2022/10/10 07:59:18;;;;;;;4.67;2.53;;;11.00;99.90;;;;;;5124078;28;20450;-61
2022/10/10 08:01:45;;;;;;;6.43;2.43;;;11.10;99.90;;;;;;5122107;28;20540;-59
2022/10/10 08:04:12;;;;;;;5.07;2.77;;;11.20;99.90;;;;;;5122218;28;20496;-62
2022/10/10 08:06:38;;;;;;;5.10;2.77;;;11.30;99.90;;;;;;5121040;28;20432;-61
2022/10/10 08:09:05;;;;;;;3.53;3.07;;;11.40;99.90;;;;;;5121051;28;20467;-63
2022/10/10 08:11:32;;;;;;;5.70;2.77;;;11.40;99.90;;;;;;5120961;28;20436;-62
2022/10/10 08:14:00;;;;;;;6.40;2.60;;;11.50;99.90;;;;;;5122322;28;20440;-60
2022/10/10 08:16:27;;;;;;;5.90;3.40;;;11.50;99.90;;;;;;5122356;28;20511;-61
2022/10/10 08:18:54;;;;;;;6.47;2.27;;;11.60;99.90;;;;;;5120889;28;20472;-58
2022/10/10 08:21:21;;;;;;;4.87;2.60;;;11.70;99.90;;;;;;5120705;28;20507;-62
2022/10/10 08:23:48;;;;;;;8.17;3.47;;;11.70;99.90;;;;;;5121169;28;20899;-61
2022/10/10 08:26:16;;;;;;;5.50;2.20;;;11.80;99.90;;;;;;5120829;28;20516;-62
2022/10/10 08:28:44;;;;;;;6.03;2.27;;;11.70;99.90;;;;;;5121103;28;20469;-62
2022/10/10 08:31:14;;;;;;;8.00;2.80;;;11.70;99.90;;;;;;5122305;28;20448;-61
2022/10/10 08:33:42;;;;;;;9.00;2.40;;;11.70;99.90;;;;;;5124078;28;20536;-60
2022/10/10 08:36:12;;;;;;;2.93;1.97;;;11.60;99.90;;;;;;5130729;28;20463;-61
2022/10/10 08:38:39;;;;;;;3.60;2.40;;;11.70;99.90;;;;;;5123301;28;20437;-61
2022/10/10 08:41:10;;;;;;;3.00;2.00;;;11.70;99.90;;;;;;5117817;28;20468;-57
2022/10/10 08:43:41;;;;;;;3.60;1.97;;;11.90;99.90;;;;;;5120405;28;20421;-62
2022/10/10 08:46:15;;;;;;;8.33;3.57;;;12.10;99.90;;;;;;5118698;28;20484;-63
2022/10/10 08:48:44;;;;;;;3.77;2.40;;;12.30;99.90;;;;;;5119957;28;20516;-62
2022/10/10 08:51:16;;;;;;;8.40;2.77;;;12.60;99.90;;;;;;5120731;28;20445;-61
2022/10/10 08:53:53;;;;;;;3.40;2.00;;;13.20;99.90;;;;;;5120289;28;20494;-62
2022/10/10 08:56:26;;;;;;;5.30;2.23;;;14.00;99.90;;;;;;5119941;28;20428;-61
2022/10/10 08:58:57;;;;;;;3.77;2.53;;;14.90;99.90;;;;;;5118261;28;20425;-61
2022/10/10 09:01:32;;;;;;;2.57;2.17;;;15.80;99.90;;;;;;5118442;28;20429;-61
2022/10/10 09:04:02;;;;;;;3.90;2.63;;;16.70;99.90;;;;;;5118119;28;20444;-61
2022/10/10 09:06:55;;;;;;;6.27;3.03;;;17.00;99.90;;;;;;5118299;28;20496;-60
2022/10/10 09:09:31;;;;;;;6.30;2.37;;;16.60;99.90;;;;;;5118939;28;20503;-61
2022/10/10 09:12:09;;;;;;;5.40;2.50;;;16.20;99.90;;;;;;5119654;28;20468;-63
2022/10/10 09:14:43;;;;;;;2.97;2.33;;;15.90;99.90;;;;;;5117751;28;20493;-63
2022/10/10 09:17:22;;;;;;;3.47;2.30;;;15.70;99.90;;;;;;5117702;28;20930;-65
2022/10/10 09:19:58;;;;;;;6.13;2.57;;;15.50;99.90;;;;;;5117505;28;20539;-62
2022/10/10 09:22:31;;;;;;;6.10;3.57;;;15.50;99.90;;;;;;5118377;28;20549;-66
2022/10/10 09:25:06;;;;;;;4.50;2.43;;;16.30;99.90;;;;;;5117881;28;20468;-61
2022/10/10 09:27:40;;;;;;;5.30;2.97;;;16.90;99.90;;;;;;5117766;28;20424;-62
2022/10/10 09:30:13;;;;;;;3.83;2.80;;;16.90;99.90;;;;;;5118484;28;20421;-62
2022/10/10 09:32:46;;;;;;;3.23;2.30;;;16.80;99.90;;;;;;5117640;28;20952;-60
2022/10/10 09:35:19;;;;;;;2.73;2.40;;;17.30;99.90;;;;;;5118580;28;20425;-59
2022/10/10 09:37:48;;;;;;;6.10;2.70;;;18.60;99.90;;;;;;5118277;28;20555;-63
2022/10/10 09:40:23;;;;;;;4.47;2.17;;;19.90;99.90;;;;;;5118604;28;20445;-60
2022/10/10 09:42:51;;;;;;;6.93;2.10;;;21.10;99.90;;;;;;5117799;28;20464;-62
2022/10/10 09:45:20;;;;;;;2.50;2.00;;;21.90;94.60;;;;;;5116170;28;20468;-62
2022/10/10 09:47:53;;;;;;;4.00;2.73;;;22.60;92.10;;;;;;5116160;28;20475;-61
2022/10/10 09:50:20;;;;;;;8.30;4.03;;;23.00;86.00;;;;;;5115905;28;20881;-62
2022/10/10 09:52:47;;;;;;;2.70;2.27;;;23.60;85.30;;;;;;5116137;28;20417;-62
2022/10/10 09:55:26;;;;;;;3.17;2.40;;;24.00;81.40;;;;;;5116034;28;20478;-65
2022/10/10 09:57:56;;;;;;;5.03;2.17;;;24.10;78.70;;;;;;5116018;28;20471;-62
2022/10/10 10:00:27;;;;;;;3.60;2.37;;;24.40;73.70;;;;;;5115762;28;20924;-61
2022/10/10 10:03:09;;;;;;;5.47;3.80;;;23.90;74.10;;;;;;5115426;28;20480;-63
2022/10/10 10:05:36;;;;;;;4.27;2.33;;;23.60;73.30;;;;;;5115902;28;20437;-63
2022/10/10 10:08:06;;;;;;;6.90;3.77;;;23.10;74.70;;;;;;5115873;28;20436;-63
2022/10/10 10:10:36;;;;;;;4.33;2.90;;;22.30;74.40;;;;;;5115552;28;20499;-60
2022/10/10 10:13:13;;;;;;;6.27;2.30;;;19.00;74.50;;;;;;5115605;28;20435;-64
2022/10/10 10:15:48;;;;;;;4.40;2.43;;;20.30;80.60;;;;;;5115983;28;20429;-62
2022/10/10 10:18:24;;;;;;;3.30;2.20;;;19.70;88.50;;;;;;5117520;28;20490;-62
2022/10/10 10:20:52;;;;;;;3.57;2.53;;;18.90;91.30;;;;;;5117593;28;20430;-62
2022/10/10 10:23:24;;;;;;;2.97;2.10;;;18.80;93.00;;;;;;5117505;28;20487;-59
2022/10/10 10:25:58;;;;;;;5.17;2.40;;;18.30;93.80;;;;;;5116084;28;20436;-65
2022/10/10 10:28:25;;;;;;;3.67;2.13;;;18.10;97.30;;;;;;5117361;28;20436;-63
2022/10/10 10:30:54;;;;;;;4.60;2.40;;;18.20;96.60;;;;;;5116359;28;20564;-61
2022/10/10 10:33:38;;;;;;;3.73;2.30;;;18.20;97.40;;;;;;5116005;28;20497;-64
2022/10/10 10:36:17;;;;;;;4.07;2.57;;;18.60;99.20;;;;;;5115902;28;20436;-63
2022/10/10 10:38:49;;;;;;;3.30;2.03;;;19.10;98.20;;;;;;5115842;28;20521;-62
2022/10/10 10:41:24;;;;;;;4.47;2.53;;;19.40;96.20;;;;;;5115962;28;20444;-58
2022/10/10 10:44:05;;;;;;;3.53;1.93;;;19.50;96.00;;;;;;5115807;28;20464;-61
2022/10/10 10:46:47;;;;;;;3.30;2.50;;;19.50;96.80;;;;;;5115267;28;20448;-63
2022/10/10 10:49:22;;;;;;;3.40;2.43;;;19.50;95.60;;;;;;5115770;28;20464;-62
2022/10/10 10:52:15;;;;;;;3.90;2.60;;;19.20;97.20;;;;;;5115402;28;20543;-64
2022/10/10 10:54:57;;;;;;;4.07;3.13;;;19.10;96.70;;;;;;5113663;28;20475;-64
2022/10/10 10:57:33;;;;;;;4.17;3.03;;;19.30;98.10;;;;;;5115244;28;20448;-61
2022/10/10 11:00:05;;;;;;;2.63;2.43;;;19.40;97.10;;;;;;5114918;28;20424;-61
2022/10/10 11:02:39;;;;;;;4.93;2.20;;;19.80;97.30;;;;;;5115578;28;20511;-63
2022/10/10 11:05:33;;;;;;;4.00;2.20;;;19.90;94.60;;;;;;5114802;28;20431;-61
2022/10/10 11:08:12;;;;;;;2.93;2.13;;;19.90;94.90;;;;;;5111601;28;20496;-61
2022/10/10 11:10:45;;;;;;;5.43;3.30;;;19.90;94.30;;;;;;5114577;28;20421;-61
2022/10/10 11:13:19;;;;;;;3.10;2.50;;;19.60;94.50;;;;;;5114380;28;20429;-61
2022/10/10 11:15:51;;;;;;;3.40;2.60;;;19.40;96.20;;;;;;5114784;28;20429;-61
2022/10/10 11:18:24;;;;;;;3.23;2.47;;;19.10;97.20;;;;;;5114510;28;20409;-66
2022/10/10 11:21:00;;;;;;;3.70;2.50;;;18.80;97.20;;;;;;5114630;28;20568;-61
2022/10/10 11:23:33;;;;;;;6.00;2.40;;;18.60;97.80;;;;;;5114422;28;20467;-61
2022/10/10 11:26:06;;;;;;;3.30;2.10;;;18.60;98.60;;;;;;5114354;28;20451;-62
2022/10/10 11:28:39;;;;;;;2.43;2.23;;;18.40;99.10;;;;;;5114064;28;20737;-62
2022/10/10 11:31:11;;;;;;;6.13;2.87;;;18.30;99.90;;;;;;5114046;28;20761;-62
2022/10/10 11:33:44;;;;;;;2.60;2.20;;;18.40;99.90;;;;;;5114035;28;20471;-63
2022/10/10 11:36:16;;;;;;;2.30;1.97;;;18.30;99.90;;;;;;5115245;28;20421;-61
2022/10/10 11:38:48;;;;;;;6.73;2.30;;;18.20;99.90;;;;;;5114502;28;20436;-62
2022/10/10 11:41:20;;;;;;;4.63;2.73;;;18.20;99.90;;;;;;5114037;28;20949;-60
2022/10/10 11:43:52;;;;;;;3.80;2.40;;;18.20;99.90;;;;;;5113909;28;20500;-62
2022/10/10 11:46:27;;;;;;;3.53;2.67;;;18.30;99.90;;;;;;5113981;28;20462;-61
2022/10/10 11:49:03;;;;;;;4.87;2.10;;;18.40;99.90;;;;;;5114183;28;20627;-61
2022/10/10 11:51:44;;;;;;;3.63;2.60;;;18.30;99.90;;;;;;5114089;28;20436;-60
2022/10/10 11:54:22;;;;;;;3.13;2.23;;;18.30;99.90;;;;;;5114040;28;20464;-63
2022/10/10 11:56:51;;;;;;;5.30;2.57;;;18.40;99.90;;;;;;5115747;28;20439;-64
2022/10/10 11:59:25;;;;;;;5.60;2.97;;;18.40;99.90;;;;;;5116740;28;20475;-60
2022/10/10 12:01:54;;;;;;;7.20;2.50;;;18.30;99.90;;;;;;5114557;28;20885;-61
2022/10/10 12:04:22;;;;;;;8.53;3.00;;;18.40;99.90;;;;;;5114280;28;20480;-61
2022/10/10 12:06:56;;;;;;;6.00;2.63;;;18.30;99.90;;;;;;5114043;28;20472;-60
2022/10/10 12:09:27;;;;;;;2.00;1.77;;;18.20;99.90;;;;;;5114470;28;20452;-60
2022/10/10 12:11:57;;;;;;;3.43;2.60;;;18.10;99.90;;;;;;5116106;28;20420;-60
2022/10/10 12:14:28;;;;;;;3.00;2.30;;;18.10;99.90;;;;;;5116066;28;20437;-61
2022/10/10 12:16:56;;;;;;;2.63;2.40;;;18.10;99.90;;;;;;5116080;28;20489;-60
2022/10/10 12:19:24;;;;;;;3.80;2.10;;;18.20;99.90;;;;;;5115620;28;20936;-62
2022/10/10 12:21:56;;;;;;;4.80;2.83;;;18.20;99.90;;;;;;5119658;28;20458;-61
2022/10/10 12:24:23;;;;;;;5.20;2.30;;;18.30;99.90;;;;;;5119559;28;20750;-60
2022/10/10 12:27:27;;;;;;;2.97;1.70;;;18.40;99.90;;;;;;5119843;28;20471;-60
2022/10/10 12:30:31;;;;;;;4.00;2.23;;;18.50;99.90;;;;;;5120765;28;20432;-60
2022/10/10 12:33:00;;;;;;;4.07;2.43;;;18.60;99.90;;;;;;5120173;28;20471;-61
2022/10/10 12:35:34;;;;;;;3.97;2.60;;;18.80;99.90;;;;;;5128064;28;20477;-57
2022/10/10 12:38:23;;;;;;;5.23;2.50;;;18.90;99.90;;;;;;5131270;28;20427;-59
2022/10/10 12:41:08;;;;;;;5.83;2.60;;;19.00;99.90;;;;;;5114497;28;20458;-61
2022/10/10 12:43:45;;;;;;;7.80;2.97;;;19.00;99.90;;;;;;5098479;28;20786;-60
2022/10/10 12:46:20;;;;;;;3.90;2.67;;;18.90;99.90;;;;;;5097825;28;20487;-59
2022/10/10 12:49:18;;;;;;;2.60;2.40;;;18.80;99.90;;;;;;5098218;28;20433;-61
2022/10/10 12:51:58;;;;;;;5.03;2.77;;;18.30;99.90;;;;;;5094613;28;20800;-62
2022/10/10 12:54:30;;;;;;;2.33;2.13;;;18.80;99.90;;;;;;5097981;28;20467;-62
2022/10/10 12:57:12;;;;;;;2.53;2.10;;;18.80;99.90;;;;;;5096490;28;20430;-61
2022/10/10 12:59:40;;;;;;;2.97;2.50;;;18.70;99.90;;;;;;5096349;28;20475;-62
2022/10/10 13:02:16;;;;;;;2.87;2.50;;;18.70;99.90;;;;;;5098414;28;20456;-60
2022/10/10 13:04:47;;;;;;;6.93;3.07;;;18.70;99.90;;;;;;5098907;28;20514;-62
2022/10/10 13:07:17;;;;;;;5.60;3.00;;;18.70;99.90;;;;;;5099801;28;20430;-60
2022/10/10 13:09:47;;;;;;;7.83;2.50;;;18.80;99.90;;;;;;5099880;28;20438;-60
2022/10/10 13:12:26;;;;;;;5.20;3.53;;;18.80;99.90;;;;;;5100688;28;20468;-61